CheckWX is a tool to help pilots better visualize weather data.  It is not intended as a substitute for an official pre-flight weather briefing.

15:56:13 UTC

KLMT METAR
Crater Lake-Klamath Regional Airport
Klamath Falls, Oregon, USA
Current

1 hour ago

KLMT 051453Z 15012KT 10SM FEW080 OVC100 03/M01 A2951 RMK AO2 SLP991 T00281011 53001
Observed
Apr-5 @ 14:53 UTC
Wind
  • 150° at 12 KTS
Visibility
Flight Rules
VFR
Cloud Levels
  • Few at 8,000' AGL
  • Overcast at 10,000' AGL
Temperature
C / 37°F
Dewpoint
-1°C / 30°F
Humidity
75%
Altimeter
29.51" Hg
Pressure
999.32 hPa
Previous

2 hours ago

KLMT 051353Z 15010KT 10SM BKN110 03/M02 A2951 RMK AO2 SLP989 T00281017
Observed
Apr-5 @ 13:53 UTC
Wind
  • 150° at 10 KTS
Visibility
Flight Rules
VFR
Cloud Levels
  • Broken at 11,000' AGL
Temperature
C / 37°F
Dewpoint
-2°C / 28°F
Humidity
70%
Altimeter
29.51" Hg
Pressure
999.32 hPa
Previous

3 hours ago

KLMT 051253Z AUTO 15016G20KT 10SM SCT034 OVC110 03/M01 A2950 RMK AO2 SLP987 T00281011
Observed
Apr-5 @ 12:53 UTC
Wind
  • 150° at 16 KTS
  • Gusting to 20 KTS
Visibility
Flight Rules
VFR
Cloud Levels
  • Scattered at 3,400' AGL
  • Overcast at 11,000' AGL
Temperature
C / 37°F
Dewpoint
-1°C / 30°F
Humidity
75%
Altimeter
29.5" Hg
Pressure
999.02 hPa